Terminal Aerodrome Forecast
Issued by NWS Houston/Galveston, TX

Home | Current Version | Previous Version | Text Only | Print | Product List | Glossary On
Versions: 1 2 3 4 5 6 7 8 9 10 11 12 13 14 15 16
000
FTUS44 KHGX 200529
TAFCLL
TAF
KCLL 200529Z 2006/2106 15010KT 3SM BR VCSH OVC005
     FM200900 15005KT 1SM BR VCSH OVC003
     FM201500 18007KT 5SM BR VCSH BKN006 OVC015
     FM201800 18012G20KT P6SM VCSH SCT010 OVC020
     FM210000 16010KT 4SM BR VCSH OVC007=

USA.gov is the U.S. government's official web portal to all federal, state and local government web resources and services.